Time;durP1;ratioP1;P1;durP2;ratioP2;P2;SDS_P1;SDS_P2;PMS_P1;PMS_P2;Temp;Humidity;BMP_temperature;BMP_pressure;BME280_temperature;BME280_humidity;BME280_pressure;Samples;Min_cycle;Max_cycle;Signal;HPM_P1;HPM_P2
2022/10/02 00:02:25;;;;;;;16.25;3.60;;;9.50;99.90;;;;;;4375678;27;10000872;-75
2022/10/02 00:05:06;;;;;;;17.15;3.42;;;9.50;99.90;;;;;;5081098;28;20120;-74
2022/10/02 00:08:05;;;;;;;17.65;3.50;;;9.50;99.90;;;;;;5083176;27;20145;-74
2022/10/02 00:10:37;;;;;;;11.52;3.20;;;9.50;99.90;;;;;;5077033;28;20086;-74
2022/10/02 00:13:11;;;;;;;12.00;3.77;;;9.50;99.90;;;;;;5082766;27;20058;-74
2022/10/02 00:15:41;;;;;;;15.50;3.90;;;9.50;99.90;;;;;;5079489;28;20502;-75
2022/10/02 00:18:11;;;;;;;11.73;3.30;;;9.50;99.90;;;;;;5076611;28;20099;-75
2022/10/02 00:20:42;;;;;;;14.75;3.63;;;9.50;99.90;;;;;;5074272;28;20122;-75
2022/10/02 00:23:24;;;;;;;11.77;3.17;;;9.50;99.90;;;;;;5088977;28;20043;-75
2022/10/02 00:25:54;;;;;;;20.13;3.58;;;9.50;99.90;;;;;;5082384;28;20325;-75
2022/10/02 00:28:34;;;;;;;12.27;3.70;;;9.60;99.90;;;;;;5075055;28;20527;-75
2022/10/02 00:31:11;;;;;;;12.57;3.45;;;9.50;99.90;;;;;;5091349;28;20047;-75
2022/10/02 00:33:51;;;;;;;10.52;3.45;;;9.40;99.90;;;;;;5102741;27;20036;-74
2022/10/02 00:36:22;;;;;;;17.83;3.70;;;9.40;99.90;;;;;;5113871;27;22870;-75
2022/10/02 00:39:29;;;;;;;13.52;3.65;;;9.40;99.90;;;;;;5123086;27;20237;-74
2022/10/02 00:42:12;;;;;;;20.25;4.22;;;9.40;99.90;;;;;;5013128;28;20041;-74
2022/10/02 00:44:41;;;;;;;20.77;4.20;;;9.50;99.90;;;;;;5102910;27;20131;-75
2022/10/02 00:47:16;;;;;;;16.05;3.88;;;9.50;99.90;;;;;;5120680;27;20058;-75
2022/10/02 00:50:08;;;;;;;12.25;3.72;;;9.50;99.90;;;;;;5132772;27;20053;-75
2022/10/02 00:53:00;;;;;;;14.73;3.80;;;9.50;99.90;;;;;;5113332;27;20483;-75
2022/10/02 00:55:53;;;;;;;15.23;3.65;;;9.50;99.90;;;;;;5116722;27;20114;-75
2022/10/02 00:58:38;;;;;;;;;;;9.50;99.90;;;;;;5114445;27;20716;-75
2022/10/02 01:01:10;;;;;;;;;;;9.50;99.90;;;;;;5120586;27;19994;-75
2022/10/02 01:03:40;;;;;;;14.63;4.32;;;9.50;99.90;;;;;;5129098;27;20009;-75
2022/10/02 01:06:07;;;;;;;12.40;3.90;;;9.50;99.90;;;;;;5126269;27;20015;-75
2022/10/02 01:08:34;;;;;;;17.17;4.72;;;9.50;99.90;;;;;;5118815;27;20021;-75
2022/10/02 01:11:01;;;;;;;14.93;4.32;;;9.50;99.90;;;;;;5118191;27;20027;-75
2022/10/02 01:13:28;;;;;;;13.07;4.18;;;9.50;99.90;;;;;;5132848;27;20019;-75
2022/10/02 01:15:56;;;;;;;10.10;4.13;;;9.50;99.90;;;;;;5121012;27;20059;-75
2022/10/02 01:18:21;;;;;;;11.57;4.15;;;9.40;99.90;;;;;;5111379;27;20015;-75
2022/10/02 01:20:56;;;;;;;11.23;4.10;;;9.40;99.90;;;;;;5116684;27;20050;-75
2022/10/02 01:23:42;;;;;;;11.27;4.05;;;9.40;99.90;;;;;;5117274;27;20031;-75
2022/10/02 01:26:08;;;;;;;13.38;3.90;;;9.40;99.90;;;;;;5128773;27;20033;-75
2022/10/02 01:28:34;;;;;;;18.23;4.72;;;9.30;99.90;;;;;;5110511;27;20405;-75
2022/10/02 01:31:14;;;;;;;15.90;4.60;;;9.30;99.90;;;;;;5117578;27;20133;-75
2022/10/02 01:33:42;;;;;;;16.23;4.68;;;9.30;99.90;;;;;;5115897;27;20030;-75
2022/10/02 01:36:10;;;;;;;18.73;4.85;;;9.30;99.90;;;;;;5120879;27;20076;-74
2022/10/02 01:38:36;;;;;;;12.05;4.53;;;9.30;99.90;;;;;;5125285;27;20054;-74
2022/10/02 01:41:02;;;;;;;15.15;5.22;;;9.30;99.90;;;;;;5122339;27;20102;-75
2022/10/02 01:43:34;;;;;;;17.75;5.60;;;9.30;99.90;;;;;;5120093;27;20053;-75
2022/10/02 01:46:00;;;;;;;11.30;5.32;;;9.30;99.90;;;;;;5121619;27;20047;-74
2022/10/02 01:48:31;;;;;;;13.98;4.93;;;9.30;99.90;;;;;;5113313;27;20128;-74
2022/10/02 01:51:19;;;;;;;17.42;6.03;;;9.40;99.90;;;;;;5122823;27;20018;-75
2022/10/02 01:54:00;;;;;;;14.55;5.78;;;9.40;99.90;;;;;;5129722;27;21222;-74
2022/10/02 01:56:37;;;;;;;16.27;5.82;;;9.50;99.90;;;;;;5135515;27;20079;-75
2022/10/02 01:59:34;;;;;;;14.75;6.40;;;9.50;99.90;;;;;;5114669;27;20553;-75
2022/10/02 02:02:16;;;;;;;15.38;6.03;;;9.50;99.90;;;;;;5114342;27;20096;-75
2022/10/02 02:05:24;;;;;;;14.32;6.18;;;9.60;99.90;;;;;;5119701;27;20498;-74
2022/10/02 02:08:07;;;;;;;19.55;6.05;;;9.60;99.90;;;;;;5092344;27;20035;-74
2022/10/02 02:10:51;;;;;;;19.25;6.53;;;9.60;99.90;;;;;;5126905;27;20031;-74
2022/10/02 02:13:25;;;;;;;;;;;9.60;99.90;;;;;;5121831;27;20059;-75
2022/10/02 02:16:05;;;;;;;23.70;6.57;;;9.60;99.90;;;;;;5133704;27;19919;-75
2022/10/02 02:18:39;;;;;;;17.35;6.32;;;9.60;99.90;;;;;;5120078;27;20019;-75
2022/10/02 02:21:21;;;;;;;18.92;6.70;;;9.60;99.90;;;;;;5126142;27;20095;-75
2022/10/02 02:23:47;;;;;;;16.23;6.00;;;9.60;99.90;;;;;;5128478;27;20094;-75
2022/10/02 02:26:17;;;;;;;16.27;6.45;;;9.60;99.90;;;;;;5110478;27;20368;-75
2022/10/02 02:28:48;;;;;;;18.55;6.00;;;9.60;99.90;;;;;;5133888;27;20059;-75
2022/10/02 02:31:18;;;;;;;17.42;5.65;;;9.60;99.90;;;;;;5141352;27;20037;-75
2022/10/02 02:33:49;;;;;;;21.27;6.70;;;9.60;99.90;;;;;;5135760;27;20022;-74
2022/10/02 02:36:19;;;;;;;13.98;6.40;;;9.60;99.90;;;;;;5120806;27;20487;-75
2022/10/02 02:38:50;;;;;;;16.10;6.07;;;9.60;99.90;;;;;;5123875;27;20762;-75
2022/10/02 02:41:23;;;;;;;15.10;6.00;;;9.60;99.90;;;;;;5138189;27;20038;-74
2022/10/02 02:43:58;;;;;;;15.45;6.25;;;9.60;99.90;;;;;;5126710;27;20096;-75
2022/10/02 02:47:02;;;;;;;13.95;5.40;;;9.60;99.90;;;;;;5125689;27;20023;-75
2022/10/02 02:49:24;;;;;;;16.10;6.05;;;9.60;99.90;;;;;;5107387;27;20539;-75
2022/10/02 02:51:52;;;;;;;19.73;6.88;;;9.60;99.90;;;;;;5118372;27;20029;-75
2022/10/02 02:54:24;;;;;;;15.82;6.13;;;9.60;99.90;;;;;;5113259;27;20100;-75
2022/10/02 02:56:51;;;;;;;16.07;5.80;;;9.60;99.90;;;;;;5120019;27;20030;-75
2022/10/02 02:59:20;;;;;;;19.02;6.05;;;9.50;99.90;;;;;;5118250;27;20761;-75
2022/10/02 03:01:45;;;;;;;15.07;5.57;;;9.50;99.90;;;;;;5120281;27;20573;-74
2022/10/02 03:04:13;;;;;;;15.25;5.60;;;9.50;99.90;;;;;;5122495;27;20094;-74
2022/10/02 03:06:47;;;;;;;14.55;5.97;;;9.50;99.90;;;;;;5123061;27;20069;-75
2022/10/02 03:09:16;;;;;;;14.77;5.65;;;9.50;99.90;;;;;;5111726;27;20070;-74
2022/10/02 03:12:03;;;;;;;17.70;6.55;;;9.50;99.90;;;;;;5126651;27;20050;-74
2022/10/02 03:14:44;;;;;;;23.05;6.57;;;9.50;99.90;;;;;;5110662;27;20092;-74
2022/10/02 03:17:18;;;;;;;19.50;6.45;;;9.50;99.90;;;;;;5116774;27;20465;-74
2022/10/02 03:19:55;;;;;;;16.75;6.32;;;9.50;99.90;;;;;;5137558;27;20520;-74
2022/10/02 03:22:47;;;;;;;17.92;6.60;;;9.50;99.90;;;;;;5123455;27;20034;-75
2022/10/02 03:25:25;;;;;;;22.08;7.00;;;9.60;99.90;;;;;;5111711;27;20049;-75
2022/10/02 03:28:00;;;;;;;15.48;6.07;;;9.60;99.90;;;;;;5126272;27;20015;-74
2022/10/02 03:30:27;;;;;;;23.67;6.43;;;9.50;99.90;;;;;;5133361;27;20058;-74
2022/10/02 03:32:55;;;;;;;18.75;6.43;;;9.60;99.90;;;;;;5117777;27;20053;-75
2022/10/02 03:35:22;;;;;;;20.45;6.68;;;9.50;99.90;;;;;;5123831;27;20031;-74
2022/10/02 03:37:51;;;;;;;15.23;6.13;;;9.60;99.90;;;;;;5119036;27;20576;-75
2022/10/02 03:40:23;;;;;;;16.23;6.60;;;9.60;99.90;;;;;;5121741;27;20119;-74
2022/10/02 03:42:50;;;;;;;19.23;6.57;;;9.60;99.90;;;;;;5116591;27;20118;-75
2022/10/02 03:45:17;;;;;;;18.08;6.47;;;9.60;99.90;;;;;;5115635;27;20070;-75
2022/10/02 03:47:43;;;;;;;13.07;6.43;;;9.60;99.90;;;;;;5135669;27;20039;-75
2022/10/02 03:50:12;;;;;;;19.85;6.30;;;9.60;99.90;;;;;;5128644;27;20027;-75
2022/10/02 03:52:37;;;;;;;22.42;6.45;;;9.60;99.90;;;;;;5114585;27;20483;-74
2022/10/02 03:55:17;;;;;;;14.57;6.18;;;9.60;99.90;;;;;;5116901;27;20031;-75
2022/10/02 03:57:44;;;;;;;15.68;6.20;;;9.60;99.90;;;;;;5116747;27;20201;-75
2022/10/02 04:00:18;;;;;;;15.50;5.85;;;9.60;99.90;;;;;;5124710;27;20027;-75
2022/10/02 04:02:51;;;;;;;16.58;6.20;;;9.70;99.90;;;;;;5117455;27;20562;-75
2022/10/02 04:05:40;;;;;;;20.33;6.93;;;9.60;99.90;;;;;;5122764;27;20072;-75
2022/10/02 04:08:17;;;;;;;19.17;5.95;;;9.60;99.90;;;;;;5108509;27;20431;-75
2022/10/02 04:10:49;;;;;;;19.90;6.00;;;9.70;99.90;;;;;;5116835;27;20019;-74
2022/10/02 04:13:15;;;;;;;18.15;5.60;;;9.70;99.90;;;;;;5130850;27;20023;-75
2022/10/02 04:15:40;;;;;;;15.57;5.95;;;9.70;99.90;;;;;;5127771;27;20031;-74
2022/10/02 04:18:32;;;;;;;15.05;6.07;;;9.70;99.90;;;;;;5119079;27;20027;-74
2022/10/02 04:21:08;;;;;;;18.98;6.20;;;9.70;99.90;;;;;;5113930;27;20088;-74
2022/10/02 04:23:41;;;;;;;17.60;6.43;;;9.70;99.90;;;;;;5124823;27;20019;-74
2022/10/02 04:26:14;;;;;;;20.75;6.47;;;9.80;99.90;;;;;;5115666;27;20033;-74
2022/10/02 04:28:43;;;;;;;;;;;9.80;99.90;;;;;;5121304;27;20626;-74
2022/10/02 04:31:13;;;;;;;15.45;5.65;;;9.80;99.90;;;;;;5119452;27;19913;-74
2022/10/02 04:33:39;;;;;;;16.50;5.53;;;9.80;99.90;;;;;;5131712;27;20031;-75
2022/10/02 04:36:17;;;;;;;22.92;6.43;;;9.90;99.90;;;;;;5116195;27;20027;-74
2022/10/02 04:38:48;;;;;;;19.27;5.70;;;9.90;99.90;;;;;;5122184;27;20076;-75
2022/10/02 04:41:23;;;;;;;16.40;5.72;;;10.00;99.90;;;;;;5125133;27;20025;-75
2022/10/02 04:44:13;;;;;;;16.80;5.55;;;9.90;99.90;;;;;;5124026;27;20115;-74
2022/10/02 04:46:51;;;;;;;16.90;5.50;;;10.00;99.90;;;;;;5121899;27;20192;-74
2022/10/02 04:49:25;;;;;;;14.60;4.95;;;10.00;99.90;;;;;;5106247;27;20038;-74
2022/10/02 04:52:19;;;;;;;14.20;5.00;;;10.00;99.90;;;;;;5118014;27;20082;-75
2022/10/02 04:55:15;;;;;;;19.58;5.40;;;10.00;99.90;;;;;;5116266;27;20026;-74
2022/10/02 04:58:26;;;;;;;13.65;4.70;;;10.00;99.90;;;;;;5112129;27;20484;-75
2022/10/02 05:01:15;;;;;;;14.63;5.35;;;10.00;99.90;;;;;;5127085;27;20055;-75
2022/10/02 05:04:21;;;;;;;15.90;5.57;;;10.00;99.90;;;;;;5117593;27;20023;-75
2022/10/02 05:07:11;;;;;;;17.27;5.57;;;10.10;99.90;;;;;;5101604;27;20043;-75
2022/10/02 05:10:12;;;;;;;23.20;5.90;;;10.10;99.90;;;;;;5108986;27;20023;-75
2022/10/02 05:13:05;;;;;;;22.33;5.38;;;10.10;99.90;;;;;;5109674;27;20754;-75
2022/10/02 05:15:46;;;;;;;13.70;4.43;;;10.10;99.90;;;;;;5113529;27;20034;-75
2022/10/02 05:18:36;;;;;;;14.82;4.80;;;10.20;99.90;;;;;;5124011;27;20385;-74
2022/10/02 05:21:19;;;;;;;18.25;5.03;;;10.20;99.90;;;;;;5104281;27;20115;-75
2022/10/02 05:24:00;;;;;;;;;;;10.20;99.90;;;;;;5139274;27;20113;-75
2022/10/02 05:26:51;;;;;;;22.08;5.10;;;10.20;99.90;;;;;;5123938;27;19921;-75
2022/10/02 05:29:38;;;;;;;22.65;5.40;;;10.20;99.90;;;;;;5128446;27;20031;-74
2022/10/02 05:32:18;;;;;;;13.77;5.05;;;10.20;99.90;;;;;;5129394;27;20058;-74
2022/10/02 05:35:12;;;;;;;26.40;5.57;;;10.30;99.90;;;;;;5129211;27;20421;-74
2022/10/02 05:37:55;;;;;;;21.25;5.53;;;10.30;99.90;;;;;;5130456;27;20445;-74
2022/10/02 05:40:40;;;;;;;;;;;10.30;99.90;;;;;;5115847;27;20023;-74
2022/10/02 05:43:22;;;;;;;;;;;10.30;99.90;;;;;;5134695;27;19915;-75
2022/10/02 05:45:57;;;;;;;26.85;9.85;;;10.40;99.90;;;;;;5130082;27;20623;-74
2022/10/02 05:48:26;;;;;;;24.17;7.28;;;10.40;99.90;;;;;;5128027;27;20027;-74
2022/10/02 05:50:58;;;;;;;23.70;7.72;;;10.40;99.90;;;;;;5121339;27;20022;-74
2022/10/02 05:53:39;;;;;;;22.60;10.05;;;10.40;99.90;;;;;;5126016;27;20031;-75
2022/10/02 05:56:29;;;;;;;25.45;7.32;;;10.40;99.90;;;;;;5131318;27;20035;-74
2022/10/02 05:59:01;;;;;;;23.80;7.72;;;10.50;99.90;;;;;;5097664;27;20153;-75
2022/10/02 06:01:32;;;;;;;23.65;7.35;;;10.50;99.90;;;;;;5132524;27;20174;-75
2022/10/02 06:04:31;;;;;;;19.98;6.80;;;10.50;99.90;;;;;;5124258;27;20019;-75
2022/10/02 06:07:05;;;;;;;28.23;7.28;;;10.60;99.90;;;;;;5119535;27;20070;-74
2022/10/02 06:09:57;;;;;;;22.08;6.35;;;10.60;99.90;;;;;;5119765;27;20015;-75
2022/10/02 06:12:51;;;;;;;22.63;6.38;;;10.70;99.90;;;;;;5121974;27;20026;-74
2022/10/02 06:15:57;;;;;;;21.02;6.57;;;10.70;99.90;;;;;;5122990;27;20484;-75
2022/10/02 06:18:28;;;;;;;22.13;6.80;;;10.70;99.90;;;;;;5019825;28;20533;-75
2022/10/02 06:21:09;;;;;;;23.70;6.47;;;10.70;99.90;;;;;;5102322;27;20035;-75
2022/10/02 06:23:40;;;;;;;27.05;6.47;;;10.80;99.90;;;;;;5121343;27;20046;-75
2022/10/02 06:26:12;;;;;;;28.05;6.28;;;10.80;99.90;;;;;;5127637;27;20274;-75
2022/10/02 06:28:49;;;;;;;21.55;5.78;;;10.80;99.90;;;;;;5122094;27;20475;-75
2022/10/02 06:31:26;;;;;;;23.65;7.93;;;10.80;99.90;;;;;;5136402;27;20561;-75
2022/10/02 06:33:52;;;;;;;18.60;7.40;;;10.80;99.90;;;;;;5128112;27;20058;-75
2022/10/02 06:36:56;;;;;;;22.70;7.38;;;10.90;99.90;;;;;;5124248;27;20110;-74
2022/10/02 06:39:51;;;;;;;29.55;10.45;;;10.90;99.90;;;;;;5110635;27;20066;-75
2022/10/02 06:42:23;;;;;;;30.13;8.88;;;10.90;99.90;;;;;;5130321;27;20537;-75
2022/10/02 06:45:16;;;;;;;36.70;9.65;;;10.90;99.90;;;;;;5132698;27;20390;-75
2022/10/02 06:47:56;;;;;;;28.47;9.53;;;11.00;99.90;;;;;;5082271;27;21010;-75
2022/10/02 06:50:41;;;;;;;28.65;10.52;;;11.00;99.90;;;;;;5116013;27;20015;-74
2022/10/02 06:53:36;;;;;;;34.00;14.90;;;11.00;99.90;;;;;;5124813;27;20035;-75
2022/10/02 06:56:13;;;;;;;33.90;13.55;;;11.00;99.90;;;;;;5123704;27;20310;-74
2022/10/02 06:59:28;;;;;;;40.20;18.05;;;11.10;99.90;;;;;;5110779;27;20398;-74
2022/10/02 07:02:07;;;;;;;51.67;24.42;;;11.10;99.90;;;;;;5079080;27;20034;-74
2022/10/02 07:04:58;;;;;;;36.70;14.40;;;11.10;99.90;;;;;;5112579;27;20067;-74
2022/10/02 07:08:21;;;;;;;36.22;8.75;;;11.10;99.90;;;;;;5123216;27;20043;-75
2022/10/02 07:11:13;;;;;;;27.85;7.72;;;11.20;99.90;;;;;;5041446;28;20607;-74
2022/10/02 07:14:01;;;;;;;30.77;11.05;;;11.20;99.90;;;;;;5111826;27;20107;-75
2022/10/02 07:17:13;;;;;;;30.73;11.63;;;11.20;99.90;;;;;;5108127;27;20031;-75
2022/10/02 07:19:59;;;;;;;21.73;8.93;;;11.30;99.90;;;;;;5122829;27;20390;-74
2022/10/02 07:22:56;;;;;;;33.47;9.65;;;11.30;99.90;;;;;;5121421;27;20081;-74
2022/10/02 07:26:02;;;;;;;23.38;8.85;;;11.30;99.90;;;;;;5103538;27;20027;-75
2022/10/02 07:28:49;;;;;;;25.45;8.23;;;11.40;99.90;;;;;;5102712;27;20438;-75
2022/10/02 07:31:37;;;;;;;26.55;8.80;;;11.40;99.90;;;;;;4397257;27;10000806;-75
2022/10/02 07:34:15;;;;;;;29.33;10.27;;;11.50;99.90;;;;;;5112069;27;20019;-75
2022/10/02 07:37:08;;;;;;;27.50;9.27;;;11.50;99.90;;;;;;5121851;27;20030;-75
2022/10/02 07:39:39;;;;;;;26.80;8.63;;;11.60;99.90;;;;;;5121685;27;20029;-75
2022/10/02 07:42:21;;;;;;;25.48;10.27;;;11.70;99.90;;;;;;5118312;27;20165;-75
2022/10/02 07:45:15;;;;;;;27.92;7.43;;;11.80;99.90;;;;;;5116264;27;20414;-75
2022/10/02 07:48:01;;;;;;;21.27;8.30;;;11.80;99.90;;;;;;5119976;27;20026;-76
2022/10/02 07:50:48;;;;;;;17.85;5.95;;;11.90;99.90;;;;;;5115577;27;20027;-74
2022/10/02 07:53:37;;;;;;;24.58;6.68;;;12.10;99.90;;;;;;5120641;27;20154;-72
2022/10/02 07:56:10;;;;;;;17.65;6.13;;;12.10;99.90;;;;;;5111403;27;20252;-74
2022/10/02 07:58:45;;;;;;;16.65;5.93;;;12.20;99.90;;;;;;5113310;27;20042;-74
2022/10/02 08:01:16;;;;;;;15.77;6.55;;;12.20;99.90;;;;;;5113176;27;20510;-74
2022/10/02 08:03:55;;;;;;;16.75;7.22;;;12.20;99.90;;;;;;5118296;27;20023;-74
2022/10/02 08:06:21;;;;;;;23.17;10.95;;;12.20;99.90;;;;;;5120331;27;20030;-73
2022/10/02 08:09:01;;;;;;;15.45;6.30;;;12.20;99.90;;;;;;5120702;27;20053;-74
2022/10/02 08:11:35;;;;;;;12.45;6.07;;;12.30;99.90;;;;;;5112333;27;20037;-74
2022/10/02 08:14:17;;;;;;;14.00;5.82;;;12.30;99.90;;;;;;5116549;27;20031;-74
2022/10/02 08:16:51;;;;;;;12.20;5.00;;;12.30;99.90;;;;;;5116288;27;20103;-74
2022/10/02 08:19:58;;;;;;;11.50;4.10;;;12.30;99.90;;;;;;5112384;27;20024;-74
2022/10/02 08:22:36;;;;;;;11.57;5.80;;;12.40;99.90;;;;;;5044090;28;20033;-74
2022/10/02 08:25:24;;;;;;;8.98;4.63;;;12.40;99.90;;;;;;5054047;28;20047;-74
2022/10/02 08:28:04;;;;;;;9.40;4.13;;;12.50;99.90;;;;;;5084397;27;20502;-75
2022/10/02 08:30:30;;;;;;;10.10;5.88;;;12.50;99.90;;;;;;5109543;27;20114;-74
2022/10/02 08:32:55;;;;;;;9.27;5.28;;;12.60;99.90;;;;;;5115848;27;20135;-75
2022/10/02 08:35:27;;;;;;;8.90;4.05;;;12.60;99.90;;;;;;5103903;27;20031;-74
2022/10/02 08:38:18;;;;;;;10.10;4.70;;;12.60;99.90;;;;;;5106585;27;20027;-74
2022/10/02 08:41:06;;;;;;;8.30;4.38;;;12.60;99.90;;;;;;5104558;27;20466;-75
2022/10/02 08:43:37;;;;;;;11.00;4.82;;;12.60;99.90;;;;;;5103052;27;20080;-75
2022/10/02 08:46:34;;;;;;;7.70;5.68;;;12.70;99.90;;;;;;5104390;27;20032;-74
2022/10/02 08:49:36;;;;;;;11.10;4.55;;;12.70;99.90;;;;;;5128041;27;20042;-75
2022/10/02 08:52:24;;;;;;;14.95;5.28;;;12.70;99.90;;;;;;5109543;27;20031;-74
2022/10/02 08:55:01;;;;;;;11.38;4.57;;;12.70;99.90;;;;;;5116847;27;20134;-75
2022/10/02 08:58:09;;;;;;;12.52;4.95;;;12.80;99.90;;;;;;5118014;27;20046;-75
2022/10/02 09:01:00;;;;;;;10.63;4.50;;;12.80;99.90;;;;;;5112395;27;20012;-74
2022/10/02 09:04:22;;;;;;;13.07;4.72;;;12.80;99.90;;;;;;5112110;27;20038;-75
2022/10/02 09:07:25;;;;;;;12.43;3.80;;;12.90;99.90;;;;;;5045174;27;20043;-75
2022/10/02 09:10:27;;;;;;;8.65;3.80;;;13.00;99.90;;;;;;5109607;27;20023;-74
2022/10/02 09:12:58;;;;;;;9.68;3.83;;;13.10;99.90;;;;;;5112271;28;20051;-81
2022/10/02 09:15:57;;;;;;;10.98;4.60;;;13.20;99.90;;;;;;5119886;28;20035;-76
2022/10/02 09:18:52;;;;;;;14.27;4.50;;;13.30;99.90;;;;;;5113890;28;20032;-76
2022/10/02 09:21:39;;;;;;;10.85;4.10;;;13.40;99.90;;;;;;5117468;28;20023;-77
2022/10/02 09:24:26;;;;;;;10.15;3.97;;;13.60;99.90;;;;;;5105271;27;20432;-79
2022/10/02 09:27:19;;;;;;;11.40;5.00;;;13.90;99.90;;;;;;5121751;27;20037;-82
2022/10/02 09:30:19;;;;;;;9.15;3.30;;;14.30;99.90;;;;;;5126057;27;20107;-78
2022/10/02 09:33:14;;;;;;;6.40;2.75;;;14.50;99.90;;;;;;5099899;27;20035;-78
2022/10/02 09:36:00;;;;;;;11.07;2.78;;;14.60;99.90;;;;;;5120593;27;20089;-79
2022/10/02 09:38:45;;;;;;;8.48;3.67;;;14.70;99.90;;;;;;5111670;27;20015;-78
2022/10/02 09:41:43;;;;;;;8.65;4.50;;;14.60;99.90;;;;;;5115740;27;20059;-79
2022/10/02 09:44:23;;;;;;;5.78;3.10;;;14.60;99.90;;;;;;5112501;27;20058;-79
2022/10/02 09:47:24;;;;;;;5.25;1.75;;;14.50;99.90;;;;;;5122896;27;20030;-79
2022/10/02 09:49:56;;;;;;;5.00;2.40;;;14.40;99.90;;;;;;5106922;27;20055;-79
2022/10/02 09:52:46;;;;;;;8.93;6.45;;;14.30;99.90;;;;;;5112874;27;20008;-82
2022/10/02 09:55:34;;;;;;;9.35;7.47;;;14.20;99.90;;;;;;5118175;27;20386;-81
2022/10/02 09:58:36;;;;;;;7.70;3.67;;;14.10;99.90;;;;;;5124653;27;20036;-82
2022/10/02 10:01:17;;;;;;;7.07;3.25;;;14.10;99.90;;;;;;5117720;27;20450;-81
2022/10/02 10:04:45;;;;;;;7.75;3.28;;;14.00;99.90;;;;;;5113835;27;20445;-81
2022/10/02 10:07:48;;;;;;;7.40;3.00;;;14.00;99.90;;;;;;5000503;28;20033;-82
2022/10/02 10:10:18;;;;;;;13.70;5.20;;;14.00;99.90;;;;;;5099837;28;20032;-81
2022/10/02 10:13:11;;;;;;;13.30;7.32;;;14.00;99.90;;;;;;5119244;27;20069;-81
2022/10/02 10:15:49;;;;;;;9.55;4.95;;;14.00;99.90;;;;;;5116828;27;20075;-82
2022/10/02 10:18:41;;;;;;;6.82;4.63;;;14.00;99.90;;;;;;5114133;27;20032;-80
2022/10/02 10:21:45;;;;;;;12.68;4.70;;;14.00;99.90;;;;;;5117109;27;20326;-80
2022/10/02 10:24:20;;;;;;;3.78;2.35;;;14.00;99.90;;;;;;5112594;27;20115;-81
2022/10/02 10:26:54;;;;;;;7.70;2.63;;;14.00;99.90;;;;;;5129905;27;20607;-83
2022/10/02 10:29:25;;;;;;;6.35;2.90;;;13.90;99.90;;;;;;5139467;27;20031;-82
2022/10/02 10:31:59;;;;;;;5.97;2.53;;;13.90;99.90;;;;;;5109425;27;20055;-81
2022/10/02 10:35:01;;;;;;;6.05;3.10;;;13.90;99.90;;;;;;5120421;27;20110;-80
2022/10/02 10:41:21;;;;;;;3.85;2.85;;;13.80;99.90;;;;;;5112514;27;20270;-79
2022/10/02 10:44:34;;;;;;;6.53;2.80;;;13.80;99.90;;;;;;4997615;28;20634;-79
2022/10/02 10:47:20;;;;;;;6.40;3.13;;;13.80;99.90;;;;;;5025804;28;20404;-79
2022/10/02 10:50:01;;;;;;;11.75;3.90;;;13.90;99.90;;;;;;5100253;27;20578;-78
2022/10/02 10:52:53;;;;;;;9.15;4.00;;;14.00;99.90;;;;;;5112119;27;20441;-78
2022/10/02 10:55:37;;;;;;;7.57;3.55;;;14.10;99.90;;;;;;5113111;27;20521;-79
2022/10/02 10:58:21;;;;;;;7.70;3.85;;;14.20;99.90;;;;;;5092680;27;20037;-78
2022/10/02 11:00:50;;;;;;;7.05;4.07;;;14.30;99.90;;;;;;5095395;28;20111;-78
2022/10/02 11:03:40;;;;;;;7.07;3.90;;;14.40;99.90;;;;;;5100101;27;20104;-78
2022/10/02 11:06:06;;;;;;;6.07;3.53;;;14.50;99.90;;;;;;5092257;27;20023;-78
2022/10/02 11:08:48;;;;;;;6.50;3.90;;;14.60;99.90;;;;;;5123605;27;20522;-78
2022/10/02 11:11:49;;;;;;;8.52;4.78;;;14.70;99.90;;;;;;5109609;27;20023;-79
2022/10/02 11:14:25;;;;;;;14.52;10.60;;;14.90;99.90;;;;;;5092469;27;20036;-85
2022/10/02 11:17:02;;;;;;;7.93;4.03;;;15.00;99.90;;;;;;5104137;27;20331;-76
2022/10/02 11:19:53;;;;;;;5.95;3.28;;;15.10;99.90;;;;;;5092285;28;20046;-77
2022/10/02 11:22:21;;;;;;;7.55;3.97;;;15.20;99.90;;;;;;5092456;28;21074;-85
2022/10/02 11:25:25;;;;;;;5.55;3.30;;;15.30;99.90;;;;;;5107878;27;20031;-79
2022/10/02 11:28:20;;;;;;;6.35;2.95;;;15.30;99.90;;;;;;5098075;27;20492;-80
2022/10/02 11:31:31;;;;;;;5.82;3.53;;;15.50;99.90;;;;;;5103964;27;20023;-82
2022/10/02 11:34:08;;;;;;;8.77;3.42;;;15.60;99.90;;;;;;5091699;27;20027;-81
2022/10/02 11:36:46;;;;;;;4.55;3.05;;;15.60;99.90;;;;;;5101356;27;20102;-82
2022/10/02 11:39:31;;;;;;;16.90;10.45;;;15.50;99.90;;;;;;5096033;27;20015;-80
2022/10/02 11:42:29;;;;;;;9.48;3.70;;;15.50;99.90;;;;;;5091305;27;20352;-79
2022/10/02 11:44:58;;;;;;;5.88;3.67;;;15.60;99.90;;;;;;5088033;28;20064;-78
2022/10/02 11:47:48;;;;;;;5.93;3.13;;;15.60;99.90;;;;;;5087754;27;20036;-80
2022/10/02 11:50:17;;;;;;;7.55;3.00;;;15.70;99.90;;;;;;5115743;27;20035;-80
2022/10/02 11:53:01;;;;;;;7.63;3.15;;;15.90;99.90;;;;;;5100769;27;20500;-82
2022/10/02 11:55:55;;;;;;;9.18;3.03;;;16.10;99.90;;;;;;5096723;27;20050;-80
2022/10/02 11:58:44;;;;;;;6.30;3.05;;;16.30;99.90;;;;;;5087508;27;20116;-79
2022/10/02 12:01:27;;;;;;;7.18;2.63;;;16.40;99.90;;;;;;5097637;27;20045;-77
2022/10/02 12:03:53;;;;;;;;;;;16.60;99.90;;;;;;5084306;28;20426;-77
2022/10/02 12:06:47;;;;;;;6.85;2.75;;;16.60;99.90;;;;;;5097660;28;20637;-76
2022/10/02 12:09:32;;;;;;;9.60;3.10;;;16.80;99.90;;;;;;5096086;27;20043;-79
2022/10/02 12:12:16;;;;;;;7.78;2.97;;;17.00;99.90;;;;;;5094780;28;20027;-80
2022/10/02 12:14:59;;;;;;;6.68;2.90;;;17.20;99.90;;;;;;5086738;27;20534;-82
2022/10/02 12:17:31;;;;;;;9.18;2.50;;;17.40;99.90;;;;;;5084357;28;20606;-78
2022/10/02 12:29:29;;;;;;;7.03;2.85;;;17.40;99.90;;;;;;5095548;27;20131;-78
2022/10/02 12:32:08;;;;;;;8.90;2.72;;;17.50;99.90;;;;;;5106430;27;20027;-78
2022/10/02 12:34:53;;;;;;;6.43;2.38;;;17.60;99.90;;;;;;5094532;27;20043;-78
2022/10/02 12:37:49;;;;;;;8.05;2.40;;;17.60;99.90;;;;;;5092961;28;20036;-77
2022/10/02 12:40:30;;;;;;;8.13;2.40;;;17.50;99.90;;;;;;5081311;27;20207;-80
2022/10/02 12:43:26;;;;;;;7.63;2.35;;;17.40;99.90;;;;;;5103005;27;20055;-84
2022/10/02 12:46:06;;;;;;;9.20;2.85;;;17.20;99.90;;;;;;5126425;27;20037;-86
2022/10/02 12:48:50;;;;;;;10.32;3.30;;;16.90;99.90;;;;;;5120100;27;20482;-86
2022/10/02 12:51:53;;;;;;;11.43;2.90;;;16.40;99.90;;;;;;5109209;27;20467;-80
2022/10/02 12:54:58;;;;;;;6.30;2.08;;;15.80;99.90;;;;;;5104479;27;20041;-78
2022/10/02 12:58:01;;;;;;;6.20;2.22;;;15.40;99.90;;;;;;5103914;27;20039;-77
2022/10/02 13:00:52;;;;;;;9.52;2.30;;;15.10;99.90;;;;;;5107845;27;20578;-74
2022/10/02 13:03:44;;;;;;;7.30;2.22;;;14.90;99.90;;;;;;5119381;27;20027;-74
2022/10/02 13:06:36;;;;;;;6.25;2.08;;;14.80;99.90;;;;;;5110416;27;20038;-74
2022/10/02 13:09:26;;;;;;;8.02;2.35;;;14.80;99.90;;;;;;5121830;27;20509;-75
2022/10/02 13:12:07;;;;;;;7.93;2.60;;;14.80;99.90;;;;;;5117945;27;20023;-74
2022/10/02 13:15:01;;;;;;;9.80;2.70;;;14.70;99.90;;;;;;5111817;27;20031;-77
2022/10/02 13:18:07;;;;;;;7.13;2.58;;;14.80;99.90;;;;;;5117961;27;20106;-74
2022/10/02 13:20:42;;;;;;;7.85;2.53;;;14.90;99.90;;;;;;5079957;28;20047;-74
2022/10/02 13:23:23;;;;;;;8.05;2.88;;;15.10;99.90;;;;;;5116022;27;20485;-74
2022/10/02 13:26:05;;;;;;;8.73;2.65;;;15.10;99.90;;;;;;5133241;27;20031;-77
2022/10/02 13:29:01;;;;;;;8.23;3.15;;;15.30;99.90;;;;;;5112460;27;20484;-78
2022/10/02 13:31:57;;;;;;;6.82;3.45;;;15.60;99.90;;;;;;5105130;27;20494;-79
2022/10/02 13:34:57;;;;;;;10.05;3.08;;;15.70;99.90;;;;;;5116601;27;20027;-78
2022/10/02 13:37:41;;;;;;;9.60;3.70;;;15.70;99.90;;;;;;5108619;27;20027;-79
2022/10/02 13:40:16;;;;;;;9.43;3.35;;;15.70;99.90;;;;;;5103989;27;20016;-82
2022/10/02 13:43:23;;;;;;;6.55;2.67;;;15.80;99.90;;;;;;5115786;27;20131;-77
2022/10/02 13:46:13;;;;;;;7.55;3.00;;;15.80;99.90;;;;;;5118812;27;20039;-81
2022/10/02 13:49:03;;;;;;;11.80;3.67;;;15.80;99.90;;;;;;5116362;27;20043;-75
2022/10/02 13:51:56;;;;;;;7.25;2.90;;;15.80;99.90;;;;;;5140527;27;20026;-77
2022/10/02 13:54:35;;;;;;;7.75;2.97;;;15.80;99.90;;;;;;5125034;27;20027;-79
2022/10/02 13:57:22;;;;;;;7.65;2.72;;;15.90;99.90;;;;;;5111425;27;20035;-78
2022/10/02 14:00:13;;;;;;;6.45;2.40;;;15.90;99.90;;;;;;5116410;27;20153;-76
2022/10/02 14:03:12;;;;;;;7.15;2.38;;;15.80;99.90;;;;;;5118517;27;20054;-79
2022/10/02 14:05:53;;;;;;;8.60;2.47;;;15.80;99.90;;;;;;5130836;27;20019;-80
2022/10/02 14:09:12;;;;;;;10.38;2.65;;;15.80;99.90;;;;;;5103348;27;20110;-78
2022/10/02 14:11:47;;;;;;;8.43;2.03;;;15.70;99.90;;;;;;5065797;28;20387;-76
2022/10/02 14:14:22;;;;;;;8.20;2.65;;;15.60;99.90;;;;;;5117752;27;20042;-76
2022/10/02 14:17:02;;;;;;;5.53;2.08;;;15.60;99.90;;;;;;5119596;27;20035;-78
2022/10/02 14:19:39;;;;;;;10.43;2.50;;;15.40;99.90;;;;;;5108723;27;20027;-75